createdAt,value
2023-03-13T00:00:01.250Z,-4.66
2023-03-13T00:02:31.141Z,-4.59
2023-03-13T00:05:05.466Z,-4.54
2023-03-13T00:07:37.205Z,-4.59
2023-03-13T00:10:07.960Z,-4.56
2023-03-13T00:12:37.094Z,-4.58
2023-03-13T00:15:06.665Z,-4.55
2023-03-13T00:17:40.831Z,-4.47
2023-03-13T00:20:11.602Z,-4.52
2023-03-13T00:22:42.694Z,-4.55
2023-03-13T00:25:12.208Z,-4.56
2023-03-13T00:27:41.733Z,-4.55
2023-03-13T00:30:16.604Z,-4.53
2023-03-13T00:32:48.171Z,-4.56
2023-03-13T00:35:18.053Z,-4.64
2023-03-13T00:37:49.148Z,-4.69
2023-03-13T00:40:20.444Z,-4.75
2023-03-13T00:42:49.637Z,-4.84
2023-03-13T00:45:19.384Z,-4.80
2023-03-13T00:47:53.511Z,-5.02
2023-03-13T00:50:22.714Z,-4.91
2023-03-13T00:52:59.207Z,-4.98
2023-03-13T00:55:28.383Z,-5.09
2023-03-13T00:57:57.514Z,-5.14
2023-03-13T01:03:07.065Z,-5.05
2023-03-13T01:05:36.319Z,-5.00
2023-03-13T01:08:12.675Z,-5.04
2023-03-13T01:10:41.842Z,-4.91
2023-03-13T01:13:10.999Z,-4.84
2023-03-13T01:15:40.240Z,-4.78
2023-03-13T01:18:09.437Z,-5.06
2023-03-13T01:20:48.831Z,-4.86
2023-03-13T01:23:20.211Z,-4.76
2023-03-13T01:25:55.431Z,-4.76
2023-03-13T01:28:30.820Z,-5.15
2023-03-13T01:31:01.159Z,-4.88
2023-03-13T01:33:30.350Z,-5.01
2023-03-13T01:36:04.310Z,-5.05
2023-03-13T01:38:40.601Z,-5.19
2023-03-13T01:41:12.995Z,-5.28
2023-03-13T01:43:43.641Z,-5.41
2023-03-13T01:46:18.180Z,-5.49
2023-03-13T01:49:20.305Z,-5.54
2023-03-13T01:52:01.569Z,-5.64
2023-03-13T01:54:39.206Z,-5.73
2023-03-13T01:57:14.874Z,-5.86
2023-03-13T01:59:50.112Z,-5.89
2023-03-13T02:02:31.126Z,-6.00
2023-03-13T02:05:08.688Z,-5.98
2023-03-13T02:07:42.543Z,-6.04
2023-03-13T02:10:17.667Z,-6.06
2023-03-13T02:12:47.749Z,-6.11
2023-03-13T02:15:20.681Z,-6.05
2023-03-13T02:17:55.920Z,-6.22
2023-03-13T02:20:26.716Z,-6.17
2023-03-13T02:23:09.931Z,-6.12
2023-03-13T02:25:46.088Z,-6.20
2023-03-13T02:28:21.514Z,-6.18
2023-03-13T02:30:53.849Z,-6.21
2023-03-13T02:33:24.734Z,-6.22
2023-03-13T02:35:56.300Z,-6.22
2023-03-13T02:38:31.334Z,-6.18
2023-03-13T02:41:08.290Z,-6.19
2023-03-13T02:43:43.603Z,-6.14
2023-03-13T02:46:16.002Z,-6.16
2023-03-13T02:48:50.520Z,-6.17
2023-03-13T02:51:28.201Z,-6.26
2023-03-13T02:54:02.252Z,-6.38
2023-03-13T02:56:38.260Z,-6.30
2023-03-13T02:59:08.916Z,-6.37
2023-03-13T03:01:41.515Z,-6.40
2023-03-13T03:04:12.001Z,-6.43
2023-03-13T03:06:46.940Z,-6.45
2023-03-13T03:09:16.226Z,-6.49
2023-03-13T03:11:47.627Z,-6.52
2023-03-13T03:14:18.956Z,-6.51
2023-03-13T03:16:49.848Z,-6.54
2023-03-13T03:19:24.146Z,-6.50
2023-03-13T03:21:53.398Z,-6.54
2023-03-13T03:24:22.678Z,-6.56
2023-03-13T03:26:54.317Z,-6.57
2023-03-13T03:29:29.638Z,-6.57
2023-03-13T03:32:00.084Z,-6.72
2023-03-13T03:34:35.530Z,-6.63
2023-03-13T03:37:10.002Z,-6.58
2023-03-13T03:39:42.002Z,-6.60
2023-03-13T03:42:18.545Z,-6.59
2023-03-13T03:44:48.591Z,-6.64
2023-03-13T03:47:18.098Z,-6.61
2023-03-13T03:49:49.907Z,-6.55
2023-03-13T03:52:19.623Z,-6.58
2023-03-13T03:54:48.932Z,-6.54
2023-03-13T03:57:26.657Z,-6.57
2023-03-13T03:59:56.209Z,-6.59
2023-03-13T04:02:25.390Z,-6.56
2023-03-13T04:04:59.901Z,-6.57
2023-03-13T04:07:34.818Z,-6.57
2023-03-13T04:10:04.135Z,-6.52
2023-03-13T04:12:41.744Z,-6.55
2023-03-13T04:15:12.630Z,-6.60
2023-03-13T04:17:42.622Z,-6.43
2023-03-13T04:22:50.762Z,-6.37
2023-03-13T04:25:20.508Z,-6.34
2023-03-13T04:28:00.545Z,-6.33
2023-03-13T04:30:37.086Z,-6.29
2023-03-13T04:33:21.372Z,-6.20
2023-03-13T04:36:07.267Z,-6.23
2023-03-13T04:39:20.306Z,-6.18
2023-03-13T04:42:09.778Z,-6.08
2023-03-13T04:44:59.693Z,-6.07
2023-03-13T04:47:44.617Z,-6.05
2023-03-13T04:50:20.497Z,-6.01
2023-03-13T04:53:08.386Z,-6.00
2023-03-13T04:56:02.942Z,-5.93
2023-03-13T04:58:47.007Z,-5.85
2023-03-13T05:01:37.316Z,-5.66
2023-03-13T05:04:34.468Z,-5.39
2023-03-13T05:07:22.367Z,-5.37
2023-03-13T05:10:13.697Z,-5.57
2023-03-13T05:12:45.506Z,-5.50
2023-03-13T05:15:37.310Z,-5.44
2023-03-13T05:18:26.973Z,-5.44
2023-03-13T05:21:16.389Z,-5.37
2023-03-13T05:24:22.970Z,-5.31
2023-03-13T05:27:04.340Z,-5.29
2023-03-13T05:33:03.979Z,-5.18
2023-03-13T05:36:16.389Z,-5.07
2023-03-13T05:38:56.998Z,-5.24
2023-03-13T05:41:52.038Z,-4.88
2023-03-13T05:44:29.961Z,-4.82
2023-03-13T05:46:59.156Z,-4.60
2023-03-13T05:50:03.860Z,-4.48
2023-03-13T05:53:05.674Z,-4.42
2023-03-13T05:55:42.572Z,-4.36
2023-03-13T05:58:38.575Z,-4.39
2023-03-13T06:01:16.465Z,-4.30
2023-03-13T06:03:58.097Z,-4.35
2023-03-13T06:06:28.860Z,-4.37
2023-03-13T06:09:06.574Z,-4.25
2023-03-13T06:11:41.146Z,-4.24
2023-03-13T06:14:16.693Z,-4.24
2023-03-13T06:17:06.463Z,-4.32
2023-03-13T06:22:15.771Z,-3.84
2023-03-13T06:24:49.146Z,-3.72
2023-03-13T06:27:19.546Z,-3.68
2023-03-13T06:29:48.714Z,-3.64
2023-03-13T06:32:18.051Z,-3.55
2023-03-13T06:34:47.248Z,-3.44
2023-03-13T06:37:16.578Z,-3.37
2023-03-13T06:39:47.906Z,-3.27
2023-03-13T06:42:22.208Z,-3.19
2023-03-13T06:44:51.479Z,-3.04
2023-03-13T06:47:20.681Z,-2.91
2023-03-13T06:49:50.548Z,-2.70
2023-03-13T06:52:20.684Z,-2.57
2023-03-13T06:54:52.691Z,-2.62
2023-03-13T06:57:22.025Z,-2.69
2023-03-13T06:59:51.322Z,-2.52
2023-03-13T07:02:20.542Z,-2.56
2023-03-13T07:04:49.569Z,-2.51
2023-03-13T07:07:31.044Z,-2.69
2023-03-13T07:10:08.300Z,-2.65
2023-03-13T07:12:37.864Z,-2.68
2023-03-13T07:17:48.742Z,-2.49
2023-03-13T07:20:18.251Z,-2.36
2023-03-13T07:22:58.897Z,-2.11
2023-03-13T07:25:30.148Z,-1.89
2023-03-13T07:28:00.643Z,-1.69
2023-03-13T07:30:30.190Z,-1.28
2023-03-13T07:33:00.633Z,-1.11
2023-03-13T07:35:29.750Z,-0.91
2023-03-13T07:37:58.883Z,-0.91
2023-03-13T07:40:29.990Z,-1.04
2023-03-13T07:42:59.283Z,-0.96
2023-03-13T07:45:28.504Z,-0.75
2023-03-13T07:47:57.758Z,-0.60
2023-03-13T07:50:27.235Z,-0.61
2023-03-13T07:52:56.461Z,-0.41
2023-03-13T07:55:25.774Z,-0.29
2023-03-13T07:57:56.952Z,-0.35
2023-03-13T08:00:31.135Z,-0.43
2023-03-13T08:03:00.322Z,0.03
2023-03-13T08:05:34.580Z,0.36
2023-03-13T08:08:03.729Z,0.57
2023-03-13T08:10:33.104Z,0.66
2023-03-13T08:13:04.564Z,0.68
2023-03-13T08:15:33.889Z,0.58
2023-03-13T08:18:03.044Z,0.45
2023-03-13T08:20:32.698Z,0.52
2023-03-13T08:23:01.891Z,0.46
2023-03-13T08:25:37.345Z,0.26
2023-03-13T08:28:08.637Z,0.13
2023-03-13T08:30:48.269Z,0.08
2023-03-13T08:33:18.699Z,0.11
2023-03-13T08:35:48.212Z,0.07
2023-03-13T08:38:18.125Z,0.06
2023-03-13T08:40:47.215Z,0.05
2023-03-13T08:43:18.632Z,0.08
2023-03-13T08:45:47.756Z,0.13
2023-03-13T08:48:16.933Z,0.21
2023-03-13T08:50:46.162Z,-0.03
2023-03-13T08:53:15.315Z,-0.29
2023-03-13T08:55:44.494Z,-0.52
2023-03-13T08:58:14.742Z,-0.59
2023-03-13T09:00:45.895Z,-0.64
2023-03-13T09:03:15.173Z,-0.66
2023-03-13T09:05:55.641Z,-0.74
2023-03-13T09:08:25.855Z,-0.94
2023-03-13T09:10:58.804Z,-0.87
2023-03-13T09:13:35.039Z,-0.68
2023-03-13T09:16:08.391Z,-0.49
2023-03-13T09:18:38.629Z,-0.12
2023-03-13T09:21:10.525Z,0.37
2023-03-13T09:23:39.952Z,0.64
2023-03-13T09:26:09.041Z,0.52
2023-03-13T09:28:38.486Z,0.53
2023-03-13T09:31:15.371Z,0.45
2023-03-13T09:33:45.967Z,0.38
2023-03-13T09:36:15.188Z,0.20
2023-03-13T09:38:44.589Z,0.35
2023-03-13T09:41:27.547Z,0.41
2023-03-13T09:44:04.210Z,0.24
2023-03-13T09:46:42.544Z,0.36
2023-03-13T09:49:19.241Z,0.45
2023-03-13T09:51:54.358Z,0.44
2023-03-13T09:54:29.015Z,0.55
2023-03-13T09:57:01.705Z,0.66
2023-03-13T09:59:38.108Z,0.80
2023-03-13T10:02:23.753Z,0.68
2023-03-13T10:05:07.747Z,0.61
2023-03-13T10:07:37.950Z,0.51
2023-03-13T10:10:13.995Z,0.63
2023-03-13T10:12:47.196Z,1.03
2023-03-13T10:15:42.266Z,1.17
2023-03-13T10:18:22.258Z,1.08
2023-03-13T10:20:53.156Z,1.16
2023-03-13T10:23:29.231Z,1.08
2023-03-13T10:25:58.504Z,0.93
2023-03-13T10:28:27.906Z,0.91
2023-03-13T10:31:05.040Z,0.98
2023-03-13T10:33:38.778Z,0.81
2023-03-13T10:36:11.837Z,0.49
2023-03-13T10:38:52.159Z,0.12
2023-03-13T10:41:31.781Z,-0.02
2023-03-13T10:44:03.241Z,-0.26
2023-03-13T10:46:43.236Z,-0.16
2023-03-13T10:49:19.459Z,-0.12
2023-03-13T10:51:51.209Z,-0.27
2023-03-13T10:54:25.648Z,-0.31
2023-03-13T10:57:10.833Z,-0.48
2023-03-13T10:59:45.525Z,-0.35
2023-03-13T11:02:35.080Z,-0.36
2023-03-13T11:05:44.067Z,-0.34
2023-03-13T11:08:22.158Z,-0.23
2023-03-13T11:10:57.260Z,-0.22
2023-03-13T11:13:38.182Z,-0.23
2023-03-13T11:16:19.612Z,-0.19
2023-03-13T11:19:27.945Z,-0.58
2023-03-13T11:22:10.458Z,-0.59
2023-03-13T11:24:46.687Z,-0.72
2023-03-13T11:27:28.416Z,-0.75
2023-03-13T11:30:08.832Z,-0.69
2023-03-13T11:32:45.177Z,-0.62
2023-03-13T11:35:33.500Z,-0.70
2023-03-13T11:38:10.292Z,-0.57
2023-03-13T11:40:47.080Z,-0.80
2023-03-13T11:43:40.765Z,-0.59
2023-03-13T11:46:24.951Z,-0.50
2023-03-13T11:49:25.545Z,-0.45
2023-03-13T11:52:16.881Z,-0.42
2023-03-13T11:55:25.040Z,-0.30
2023-03-13T11:58:02.935Z,-0.34
2023-03-13T12:00:38.139Z,-0.45
2023-03-13T12:03:19.460Z,-0.57
2023-03-13T12:05:54.225Z,-0.60
2023-03-13T12:08:39.084Z,-0.50
2023-03-13T12:11:18.831Z,-0.49
2023-03-13T12:13:59.946Z,-0.25
2023-03-13T12:16:43.258Z,-0.25
2023-03-13T12:19:17.091Z,-0.41
2023-03-13T12:21:52.745Z,-0.44
2023-03-13T12:24:34.733Z,-0.70
2023-03-13T12:27:12.000Z,-0.74
2023-03-13T12:29:50.539Z,-1.38
2023-03-13T12:32:26.636Z,-1.53
2023-03-13T12:35:08.361Z,-1.78
2023-03-13T12:37:49.323Z,-1.71
2023-03-13T12:40:28.108Z,-1.73
2023-03-13T12:43:04.927Z,-1.64
2023-03-13T12:53:24.651Z,-1.77
2023-03-13T12:56:07.638Z,-1.65
2023-03-13T12:58:50.864Z,-1.52
2023-03-13T13:01:32.123Z,-1.42
2023-03-13T13:04:08.897Z,-1.34
2023-03-13T13:07:03.962Z,-1.38
2023-03-13T13:09:43.949Z,-1.43
2023-03-13T13:12:22.739Z,-1.54
2023-03-13T13:15:22.601Z,-1.41
2023-03-13T13:18:00.326Z,-1.39
2023-03-13T13:20:42.156Z,-1.44
2023-03-13T13:23:41.751Z,-1.30
2023-03-13T13:26:50.074Z,-1.19
2023-03-13T13:29:57.839Z,-1.16
2023-03-13T13:32:45.736Z,-1.08
2023-03-13T13:35:35.940Z,-0.99
2023-03-13T13:38:36.279Z,-0.80
2023-03-13T13:41:25.413Z,-0.65
2023-03-13T13:44:37.099Z,-0.73
2023-03-13T13:47:06.471Z,-0.70
2023-03-13T13:49:54.196Z,-0.76
2023-03-13T13:52:41.965Z,-0.75
2023-03-13T13:55:46.244Z,-0.69
2023-03-13T13:58:21.896Z,-0.74
2023-03-13T14:00:55.998Z,-0.79
2023-03-13T14:03:26.767Z,-0.78
2023-03-13T14:06:02.173Z,-1.04
2023-03-13T14:08:33.132Z,-1.37
2023-03-13T14:11:22.454Z,-1.49
2023-03-13T14:14:13.216Z,-1.66
2023-03-13T14:16:48.747Z,-1.65
2023-03-13T14:19:27.241Z,-1.66
2023-03-13T14:22:05.327Z,-1.86
2023-03-13T14:24:34.918Z,-1.76
2023-03-13T14:27:16.283Z,-1.70
2023-03-13T14:30:02.204Z,-1.65
2023-03-13T14:32:37.650Z,-1.70
2023-03-13T14:35:09.444Z,-1.70
2023-03-13T14:37:48.675Z,-1.61
2023-03-13T14:40:29.317Z,-1.72
2023-03-13T14:45:40.480Z,-1.45
2023-03-13T14:48:24.787Z,-1.53
2023-03-13T14:51:14.666Z,-1.61
2023-03-13T14:54:03.521Z,-1.81
2023-03-13T14:56:35.812Z,-1.76
2023-03-13T14:59:19.519Z,-1.77
2023-03-13T15:01:48.800Z,-1.73
2023-03-13T15:04:18.084Z,-1.72
2023-03-13T15:06:47.396Z,-1.79
2023-03-13T15:09:21.441Z,-1.73
2023-03-13T15:11:58.986Z,-1.81
2023-03-13T15:14:39.539Z,-1.92
2023-03-13T15:17:17.690Z,-1.85
2023-03-13T15:19:51.388Z,-1.87
2023-03-13T15:22:23.644Z,-2.06
2023-03-13T15:25:05.724Z,-2.33
2023-03-13T15:27:36.208Z,-2.71
2023-03-13T15:30:06.827Z,-2.54
2023-03-13T15:32:38.628Z,-2.74
2023-03-13T15:35:26.717Z,-2.85
2023-03-13T15:38:06.346Z,-3.04
2023-03-13T15:40:37.356Z,-2.95
2023-03-13T15:43:06.717Z,-3.10
2023-03-13T15:45:36.271Z,-3.21
2023-03-13T15:48:19.231Z,-3.38
2023-03-13T15:50:51.377Z,-3.22
2023-03-13T15:53:23.807Z,-3.16
2023-03-13T15:55:57.700Z,-3.23
2023-03-13T15:58:28.181Z,-3.27
2023-03-13T16:01:02.453Z,-3.30
2023-03-13T16:03:32.420Z,-3.27
2023-03-13T16:06:01.658Z,-3.31
2023-03-13T16:08:36.790Z,-3.24
2023-03-13T16:11:08.553Z,-3.29
2023-03-13T16:13:38.081Z,-3.33
2023-03-13T16:16:22.225Z,-3.44
2023-03-13T16:18:52.493Z,-3.35
2023-03-13T16:21:23.954Z,-3.60
2023-03-13T16:23:53.461Z,-3.38
2023-03-13T16:26:31.313Z,-3.40
2023-03-13T16:29:00.991Z,-3.43
2023-03-13T16:31:32.767Z,-3.55
2023-03-13T16:34:01.954Z,-3.30
2023-03-13T16:36:32.909Z,-3.43
2023-03-13T16:39:03.395Z,-3.54
2023-03-13T16:41:34.620Z,-3.63
2023-03-13T16:44:04.306Z,-3.69
2023-03-13T16:46:38.119Z,-3.70
2023-03-13T16:49:08.088Z,-3.69
2023-03-13T16:51:37.363Z,-3.84
2023-03-13T16:54:07.158Z,-3.69
2023-03-13T16:56:40.378Z,-3.70
2023-03-13T16:59:18.634Z,-3.68
2023-03-13T17:01:48.758Z,-3.72
2023-03-13T17:04:17.904Z,-3.72
2023-03-13T17:06:47.439Z,-3.75
2023-03-13T17:09:19.019Z,-3.71
2023-03-13T17:11:56.286Z,-3.75
2023-03-13T17:14:25.429Z,-3.80
2023-03-13T17:16:54.584Z,-3.80
2023-03-13T17:19:23.783Z,-3.84
2023-03-13T17:21:53.349Z,-3.79
2023-03-13T17:24:22.509Z,-3.81
2023-03-13T17:26:59.008Z,-3.86
2023-03-13T17:29:30.274Z,-3.84
2023-03-13T17:32:03.792Z,-3.82
2023-03-13T17:34:33.733Z,-3.88
2023-03-13T17:37:05.669Z,-4.02
2023-03-13T17:39:34.455Z,-3.84
2023-03-13T17:42:05.093Z,-3.94
2023-03-13T17:44:46.394Z,-3.99
2023-03-13T17:47:17.613Z,-3.98
2023-03-13T17:49:47.078Z,-4.03
2023-03-13T17:52:17.827Z,-4.00
2023-03-13T17:54:47.527Z,-4.09
2023-03-13T17:57:20.360Z,-4.09
2023-03-13T17:59:51.460Z,-4.08
2023-03-13T18:02:21.957Z,-4.10
2023-03-13T18:04:53.193Z,-4.09
2023-03-13T18:07:26.784Z,-4.19
2023-03-13T18:09:56.383Z,-4.12
2023-03-13T18:12:25.519Z,-4.14
2023-03-13T18:15:01.691Z,-4.15
2023-03-13T18:17:32.673Z,-4.18
2023-03-13T18:20:01.850Z,-4.22
2023-03-13T18:22:32.205Z,-4.25
2023-03-13T18:25:01.364Z,-4.24
2023-03-13T18:27:30.628Z,-4.26
2023-03-13T18:30:01.870Z,-4.27
2023-03-13T18:32:33.242Z,-4.30
2023-03-13T18:35:02.441Z,-4.35
2023-03-13T18:37:33.073Z,-4.46
2023-03-13T18:40:05.082Z,-4.35
2023-03-13T18:42:34.531Z,-4.56
2023-03-13T18:45:06.764Z,-4.37
2023-03-13T18:47:36.058Z,-4.40
2023-03-13T18:50:05.347Z,-4.44
2023-03-13T18:52:34.590Z,-4.44
2023-03-13T18:55:03.685Z,-4.43
2023-03-13T18:57:33.041Z,-4.49
2023-03-13T19:00:02.713Z,-4.50
2023-03-13T19:02:35.377Z,-4.57
2023-03-13T19:05:04.679Z,-4.65
2023-03-13T19:07:34.227Z,-4.69
2023-03-13T19:10:03.397Z,-4.72
2023-03-13T19:12:32.526Z,-4.74
2023-03-13T19:15:02.049Z,-4.75
2023-03-13T19:17:39.961Z,-4.76
2023-03-13T19:20:12.762Z,-4.77
2023-03-13T19:22:42.140Z,-4.77
2023-03-13T19:25:12.518Z,-4.83
2023-03-13T19:27:42.237Z,-4.83
2023-03-13T19:30:19.488Z,-4.88
2023-03-13T19:32:51.780Z,-4.89
2023-03-13T19:35:21.376Z,-4.91
2023-03-13T19:37:50.501Z,-4.95
2023-03-13T19:40:27.490Z,-4.98
2023-03-13T19:42:56.762Z,-5.01
2023-03-13T19:45:27.291Z,-5.02
2023-03-13T19:47:58.535Z,-5.05
2023-03-13T19:50:29.393Z,-5.20
2023-03-13T19:52:58.792Z,-5.21
2023-03-13T19:55:33.296Z,-5.17
2023-03-13T19:58:06.319Z,-5.13
2023-03-13T20:00:37.012Z,-5.15
2023-03-13T20:03:13.276Z,-5.17
2023-03-13T20:05:42.392Z,-5.20
2023-03-13T20:08:11.887Z,-5.27
2023-03-13T20:10:41.070Z,-5.24
2023-03-13T20:13:10.057Z,-5.24
2023-03-13T20:15:39.242Z,-5.32
2023-03-13T20:18:16.770Z,-5.25
2023-03-13T20:20:45.978Z,-5.28
2023-03-13T20:23:21.200Z,-5.43
2023-03-13T20:25:50.791Z,-5.36
2023-03-13T20:28:19.938Z,-5.42
2023-03-13T20:30:56.237Z,-5.43
2023-03-13T20:33:27.352Z,-5.46
2023-03-13T20:35:58.980Z,-5.48
2023-03-13T20:38:32.103Z,-5.51
2023-03-13T20:41:01.358Z,-5.53
2023-03-13T20:43:30.937Z,-5.67
2023-03-13T20:46:06.656Z,-5.68
2023-03-13T20:48:41.159Z,-5.59
2023-03-13T20:51:11.090Z,-5.61
2023-03-13T20:53:44.136Z,-5.66
2023-03-13T20:58:48.296Z,-5.62
2023-03-13T21:01:19.529Z,-5.68
2023-03-13T21:03:55.992Z,-5.78
2023-03-13T21:06:25.193Z,-5.79
2023-03-13T21:09:00.808Z,-5.70
2023-03-13T21:11:29.988Z,-5.70
2023-03-13T21:13:59.120Z,-5.71
2023-03-13T21:16:28.398Z,-5.71
2023-03-13T21:18:59.569Z,-5.68
2023-03-13T21:21:29.221Z,-5.71
2023-03-13T21:23:58.470Z,-5.69
2023-03-13T21:26:27.914Z,-5.72
2023-03-13T21:28:57.082Z,-5.70
2023-03-13T21:31:26.699Z,-6.04
2023-03-13T21:33:55.870Z,-5.76
2023-03-13T21:36:32.118Z,-5.69
2023-03-13T21:39:01.547Z,-5.72
2023-03-13T21:41:33.005Z,-5.67
2023-03-13T21:44:02.175Z,-5.71
2023-03-13T21:46:32.687Z,-6.05
2023-03-13T21:49:02.887Z,-5.86
2023-03-13T21:51:34.123Z,-5.64
2023-03-13T21:54:03.314Z,-5.69
2023-03-13T21:56:32.351Z,-5.73
2023-03-13T21:59:01.547Z,-5.80
2023-03-13T22:01:30.720Z,-5.69
2023-03-13T22:03:59.950Z,-5.70
2023-03-13T22:06:28.948Z,-5.72
2023-03-13T22:09:05.138Z,-5.73
2023-03-13T22:11:39.376Z,-5.71
2023-03-13T22:14:08.532Z,-5.79
2023-03-13T22:16:37.735Z,-5.88
2023-03-13T22:19:06.846Z,-5.96
2023-03-13T22:21:36.052Z,-5.86
2023-03-13T22:24:09.046Z,-5.90
2023-03-13T22:26:39.550Z,-5.77
2023-03-13T22:29:08.587Z,-5.72
2023-03-13T22:31:38.007Z,-5.74
2023-03-13T22:36:42.487Z,-5.68
2023-03-13T22:39:13.545Z,-5.69
2023-03-13T22:41:48.995Z,-5.58
2023-03-13T22:44:18.715Z,-5.53
2023-03-13T22:46:47.724Z,-5.54
2023-03-13T22:49:22.003Z,-5.56
2023-03-13T22:51:51.087Z,-5.58
2023-03-13T22:54:27.317Z,-5.64
2023-03-13T22:56:56.498Z,-5.62
2023-03-13T22:59:25.662Z,-5.55
2023-03-13T23:01:54.855Z,-5.55
2023-03-13T23:04:24.037Z,-5.57
2023-03-13T23:06:53.251Z,-5.48
2023-03-13T23:09:24.406Z,-5.45
2023-03-13T23:11:53.631Z,-5.42
2023-03-13T23:14:22.740Z,-5.46
2023-03-13T23:16:52.245Z,-5.43
2023-03-13T23:19:21.619Z,-5.36
2023-03-13T23:21:50.683Z,-5.48
2023-03-13T23:24:24.897Z,-5.30
2023-03-13T23:26:56.398Z,-5.25
2023-03-13T23:29:26.037Z,-5.20
2023-03-13T23:31:55.108Z,-5.15
2023-03-13T23:34:29.663Z,-5.09
2023-03-13T23:36:59.996Z,-5.10
2023-03-13T23:39:29.320Z,-4.89
2023-03-13T23:42:00.742Z,-4.80
2023-03-13T23:44:32.228Z,-4.74
2023-03-13T23:47:01.359Z,-4.79
2023-03-13T23:49:35.551Z,-4.62
2023-03-13T23:52:04.854Z,-4.54
2023-03-13T23:54:34.054Z,-4.52
2023-03-13T23:59:40.424Z,-4.48
